createdAt,value
2023-05-17T00:00:17.474Z,100783.61
2023-05-17T00:00:39.335Z,100780.80
2023-05-17T00:01:01.096Z,100783.05
2023-05-17T00:01:23.108Z,100783.02
2023-05-17T00:01:45.204Z,100781.95
2023-05-17T00:02:07.080Z,100780.54
2023-05-17T00:02:28.797Z,100782.20
2023-05-17T00:02:50.993Z,100780.95
2023-05-17T00:03:12.799Z,100780.09
2023-05-17T00:03:34.621Z,100782.84
2023-05-17T00:03:56.933Z,100780.48
2023-05-17T00:04:18.707Z,100780.98
2023-05-17T00:04:40.952Z,100782.59
2023-05-17T00:05:03.220Z,100782.47
2023-05-17T00:05:25.132Z,100785.73
2023-05-17T00:05:47.023Z,100786.27
2023-05-17T00:06:09.205Z,100781.38
2023-05-17T00:06:32.016Z,100783.57
2023-05-17T00:06:53.964Z,100788.12
2023-05-17T00:07:16.158Z,100783.86
2023-05-17T00:07:38.044Z,100782.70
2023-05-17T00:08:00.047Z,100783.86
2023-05-17T00:08:21.832Z,100780.57
2023-05-17T00:08:43.710Z,100777.25
2023-05-17T00:09:05.593Z,100783.66
2023-05-17T00:09:27.428Z,100783.98
2023-05-17T00:09:49.376Z,100781.91
2023-05-17T00:10:11.768Z,100782.04
2023-05-17T00:10:33.753Z,100782.66
2023-05-17T00:10:55.646Z,100780.52
2023-05-17T00:11:17.386Z,100778.94
2023-05-17T00:11:39.164Z,100779.81
2023-05-17T00:12:01.099Z,100779.39
2023-05-17T00:12:22.887Z,100776.71
2023-05-17T00:12:44.773Z,100779.02
2023-05-17T00:13:06.507Z,100774.97
2023-05-17T00:13:28.468Z,100774.97
2023-05-17T00:13:50.211Z,100778.52
2023-05-17T00:14:12.048Z,100777.53
2023-05-17T00:14:33.820Z,100776.83
2023-05-17T00:14:55.783Z,100777.90
2023-05-17T00:15:17.690Z,100780.00
2023-05-17T00:15:39.562Z,100775.08
2023-05-17T00:16:01.365Z,100777.46
2023-05-17T00:16:23.125Z,100779.41
2023-05-17T00:16:45.119Z,100779.08
2023-05-17T00:17:06.894Z,100782.30
2023-05-17T00:17:29.023Z,100781.59
2023-05-17T00:17:50.960Z,100778.98
2023-05-17T00:18:12.969Z,100778.64
2023-05-17T00:18:35.086Z,100779.05
2023-05-17T00:18:57.336Z,100777.84
2023-05-17T00:19:21.870Z,100782.02
2023-05-17T00:19:43.761Z,100778.67
2023-05-17T00:20:06.214Z,100782.21
2023-05-17T00:20:28.182Z,100782.48
2023-05-17T00:20:49.987Z,100782.52
2023-05-17T00:21:11.843Z,100780.92
2023-05-17T00:21:33.625Z,100780.06
2023-05-17T00:21:55.450Z,100782.45
2023-05-17T00:22:17.298Z,100782.45
2023-05-17T00:22:41.065Z,100783.73
2023-05-17T00:23:03.225Z,100784.48
2023-05-17T00:23:25.109Z,100788.10
2023-05-17T00:23:46.993Z,100787.04
2023-05-17T00:24:09.564Z,100786.86
2023-05-17T00:24:31.416Z,100786.89
2023-05-17T00:24:53.155Z,100790.12
2023-05-17T00:25:15.052Z,100786.60
2023-05-17T00:25:37.043Z,100786.06
2023-05-17T00:25:59.028Z,100789.33
2023-05-17T00:26:20.814Z,100785.61
2023-05-17T00:26:42.700Z,100786.25
2023-05-17T00:27:04.740Z,100786.05
2023-05-17T00:27:26.581Z,100785.55
2023-05-17T00:27:48.389Z,100788.48
2023-05-17T00:28:10.249Z,100787.79
2023-05-17T00:28:32.139Z,100788.11
2023-05-17T00:28:54.021Z,100788.33
2023-05-17T00:29:15.808Z,100790.67
2023-05-17T00:29:37.622Z,100794.77
2023-05-17T00:29:59.579Z,100795.00
2023-05-17T00:30:21.465Z,100794.48
2023-05-17T00:30:43.362Z,100794.81
2023-05-17T00:31:05.395Z,100795.92
2023-05-17T00:31:27.137Z,100797.03
2023-05-17T00:31:49.014Z,100797.20
2023-05-17T00:32:10.823Z,100800.61
2023-05-17T00:32:32.724Z,100802.59
2023-05-17T00:32:54.771Z,100799.20
2023-05-17T00:33:16.868Z,100801.05
2023-05-17T00:33:38.756Z,100801.23
2023-05-17T00:34:00.745Z,100799.38
2023-05-17T00:34:22.624Z,100802.17
2023-05-17T00:34:45.078Z,100804.89
2023-05-17T00:35:07.380Z,100806.14
2023-05-17T00:35:29.474Z,100805.64
2023-05-17T00:35:51.438Z,100807.65
2023-05-17T00:36:13.742Z,100804.73
2023-05-17T00:36:35.613Z,100803.41
2023-05-17T00:36:57.478Z,100806.59
2023-05-17T00:37:19.362Z,100806.42
2023-05-17T00:37:41.658Z,100802.56
2023-05-17T00:38:03.485Z,100803.43
2023-05-17T00:38:25.839Z,100805.29
2023-05-17T00:38:47.725Z,100804.59
2023-05-17T00:39:09.502Z,100805.98
2023-05-17T00:39:32.423Z,100801.98
2023-05-17T00:39:54.408Z,100801.27
2023-05-17T00:40:16.531Z,100803.99
2023-05-17T00:40:38.389Z,100802.77
2023-05-17T00:41:00.121Z,100801.41
2023-05-17T00:41:21.875Z,100801.57
2023-05-17T00:41:43.741Z,100804.83
2023-05-17T00:42:05.943Z,100802.05
2023-05-17T00:42:27.929Z,100801.88
2023-05-17T00:42:50.528Z,100803.73
2023-05-17T00:43:12.415Z,100803.95
2023-05-17T00:43:34.299Z,100802.66
2023-05-17T00:43:56.110Z,100803.56
2023-05-17T00:44:17.888Z,100802.49
2023-05-17T00:44:39.759Z,100801.79
2023-05-17T00:45:01.662Z,100803.82
2023-05-17T00:45:23.552Z,100801.89
2023-05-17T00:45:45.668Z,100803.66
2023-05-17T00:46:07.610Z,100801.73
2023-05-17T00:46:30.688Z,100802.63
2023-05-17T00:46:52.618Z,100802.09
2023-05-17T00:47:14.669Z,100801.21
2023-05-17T00:47:36.920Z,100802.09
2023-05-17T00:47:59.000Z,100801.42
2023-05-17T00:48:26.393Z,100800.02
2023-05-17T00:48:48.414Z,100800.63
2023-05-17T00:49:11.099Z,100801.41
2023-05-17T00:49:32.876Z,100800.21
2023-05-17T00:49:54.769Z,100802.98
2023-05-17T00:50:16.858Z,100803.89
2023-05-17T00:50:39.655Z,100800.04
2023-05-17T00:51:01.484Z,100799.06
2023-05-17T00:51:23.279Z,100802.70
2023-05-17T00:51:45.322Z,100800.41
2023-05-17T00:52:07.081Z,100799.55
2023-05-17T00:52:28.887Z,100801.52
2023-05-17T00:52:51.493Z,100800.77
2023-05-17T00:53:16.318Z,100800.16
2023-05-17T00:53:38.130Z,100801.23
2023-05-17T00:54:00.156Z,100805.32
2023-05-17T00:54:22.520Z,100802.33
2023-05-17T00:54:44.359Z,100803.04
2023-05-17T00:55:06.373Z,100802.05
2023-05-17T00:55:28.558Z,100803.09
2023-05-17T00:55:50.682Z,100798.66
2023-05-17T00:56:12.490Z,100801.92
2023-05-17T00:56:34.274Z,100802.24
2023-05-17T00:56:57.986Z,100798.95
2023-05-17T00:57:19.860Z,100802.70
2023-05-17T00:57:41.626Z,100797.01
2023-05-17T00:58:03.509Z,100799.40
2023-05-17T00:58:25.518Z,100799.52
2023-05-17T00:58:47.405Z,100800.67
2023-05-17T00:59:09.150Z,100801.95
2023-05-17T00:59:31.007Z,100800.14
2023-05-17T00:59:53.016Z,100800.50
2023-05-17T01:00:15.058Z,100801.24
2023-05-17T01:00:37.043Z,100803.06
2023-05-17T01:01:00.023Z,100800.25
2023-05-17T01:01:22.204Z,100800.30
2023-05-17T01:01:44.028Z,100803.01
2023-05-17T01:02:07.494Z,100801.08
2023-05-17T01:02:29.753Z,100801.82
2023-05-17T01:02:51.918Z,100802.92
2023-05-17T01:03:14.157Z,100803.43
2023-05-17T01:03:36.186Z,100802.27
2023-05-17T01:03:58.292Z,100802.62
2023-05-17T01:04:20.414Z,100802.84
2023-05-17T01:04:42.450Z,100805.02
2023-05-17T01:05:04.995Z,100805.06
2023-05-17T01:05:29.027Z,100809.73
2023-05-17T01:05:51.335Z,100811.73
2023-05-17T01:06:13.221Z,100811.94
2023-05-17T01:06:35.926Z,100814.45
2023-05-17T01:06:57.665Z,100813.63
2023-05-17T01:07:19.701Z,100815.77
2023-05-17T01:07:42.048Z,100814.95
2023-05-17T01:08:04.189Z,100813.94
2023-05-17T01:08:25.942Z,100820.01
2023-05-17T01:08:47.810Z,100818.39
2023-05-17T01:09:09.587Z,100818.98
2023-05-17T01:09:31.433Z,100819.75
2023-05-17T01:09:53.199Z,100818.31
2023-05-17T01:10:14.932Z,100817.32
2023-05-17T01:10:38.871Z,100819.46
2023-05-17T01:11:00.821Z,100818.30
2023-05-17T01:11:31.430Z,100816.94
2023-05-17T01:11:56.375Z,100815.86
2023-05-17T01:12:30.746Z,100818.74
2023-05-17T01:12:58.639Z,100814.87
2023-05-17T01:13:23.930Z,100818.09
2023-05-17T01:14:01.477Z,100819.77
2023-05-17T01:14:29.385Z,100813.61
2023-05-17T01:14:56.619Z,100817.54
2023-05-17T01:15:28.881Z,100816.42
2023-05-17T01:15:54.036Z,100815.02
2023-05-17T01:16:19.228Z,100813.14
2023-05-17T01:16:43.745Z,100812.32
2023-05-17T01:17:13.739Z,100812.18
2023-05-17T01:17:41.372Z,100809.38
2023-05-17T01:18:12.586Z,100809.25
2023-05-17T01:18:39.647Z,100812.95
2023-05-17T01:19:20.589Z,100808.91
2023-05-17T01:19:50.187Z,100811.25
2023-05-17T01:20:28.202Z,100808.16
2023-05-17T01:20:50.221Z,100806.13
2023-05-17T01:21:32.979Z,100809.92
2023-05-17T01:21:58.135Z,100806.95
2023-05-17T01:22:33.420Z,100806.83
2023-05-17T01:22:57.773Z,100807.43
2023-05-17T01:23:31.510Z,100806.77
2023-05-17T01:24:00.255Z,100807.02
2023-05-17T01:24:22.135Z,100804.73
2023-05-17T01:25:02.332Z,100805.11
2023-05-17T01:25:55.311Z,100804.65
2023-05-17T01:26:18.566Z,100803.70
2023-05-17T01:26:41.344Z,100803.16
2023-05-17T01:27:03.224Z,100805.05
2023-05-17T01:27:25.386Z,100803.27
2023-05-17T01:27:49.224Z,100800.09
2023-05-17T01:28:11.849Z,100803.19
2023-05-17T01:28:33.836Z,100801.94
2023-05-17T01:28:55.766Z,100802.48
2023-05-17T01:29:17.524Z,100802.90
2023-05-17T01:29:39.248Z,100802.70
2023-05-17T01:30:01.107Z,100802.46
2023-05-17T01:30:23.170Z,100802.17
2023-05-17T01:30:45.566Z,100801.44
2023-05-17T01:31:07.758Z,100803.95
2023-05-17T01:31:32.103Z,100801.73
2023-05-17T01:31:53.863Z,100803.41
2023-05-17T01:32:16.380Z,100802.86
2023-05-17T01:32:39.442Z,100805.41
2023-05-17T01:33:02.886Z,100803.34
2023-05-17T01:33:24.991Z,100803.18
2023-05-17T01:33:47.037Z,100801.48
2023-05-17T01:34:09.205Z,100799.05
2023-05-17T01:34:30.983Z,100800.86
2023-05-17T01:34:52.893Z,100800.95
2023-05-17T01:35:14.772Z,100803.45
2023-05-17T01:35:36.533Z,100799.41
2023-05-17T01:35:58.417Z,100801.21
2023-05-17T01:36:20.826Z,100799.58
2023-05-17T01:36:43.388Z,100801.67
2023-05-17T01:37:05.415Z,100798.87
2023-05-17T01:37:27.406Z,100799.43
2023-05-17T01:37:49.195Z,100793.61
2023-05-17T01:38:11.172Z,100799.14
2023-05-17T01:38:32.989Z,100796.58
2023-05-17T01:38:54.953Z,100796.74
2023-05-17T01:39:16.852Z,100796.59
2023-05-17T01:39:38.627Z,100793.08
2023-05-17T01:40:00.507Z,100797.57
2023-05-17T01:40:22.392Z,100798.27
2023-05-17T01:40:48.516Z,100798.70
2023-05-17T01:41:18.548Z,100795.70
2023-05-17T01:41:40.913Z,100797.34
2023-05-17T01:42:07.769Z,100794.16
2023-05-17T01:42:31.258Z,100797.25
2023-05-17T01:42:57.856Z,100799.14
2023-05-17T01:43:39.856Z,100795.64
2023-05-17T01:44:13.704Z,100796.90
2023-05-17T01:44:40.121Z,100800.27
2023-05-17T01:45:17.660Z,100799.08
2023-05-17T01:45:44.456Z,100801.09
2023-05-17T01:46:18.312Z,100801.04
2023-05-17T01:46:41.117Z,100800.38
2023-05-17T01:47:06.517Z,100801.36
2023-05-17T01:47:31.089Z,100801.56
2023-05-17T01:48:12.224Z,100801.92
2023-05-17T01:48:37.722Z,100802.18
2023-05-17T01:49:05.422Z,100804.96
2023-05-17T01:49:35.424Z,100807.85
2023-05-17T01:49:57.278Z,100808.55
2023-05-17T01:50:19.882Z,100804.70
2023-05-17T01:50:41.771Z,100807.80
2023-05-17T01:51:04.789Z,100811.05
2023-05-17T01:51:28.916Z,100808.94
2023-05-17T01:52:16.913Z,100810.45
2023-05-17T01:52:44.975Z,100812.08
2023-05-17T01:53:19.265Z,100814.64
2023-05-17T01:53:43.305Z,100812.88
2023-05-17T01:54:09.688Z,100812.63
2023-05-17T01:54:32.403Z,100812.46
2023-05-17T01:54:54.709Z,100810.48
2023-05-17T01:55:35.318Z,100810.92
2023-05-17T01:55:57.796Z,100811.70
2023-05-17T01:56:27.463Z,100813.36
2023-05-17T01:56:51.906Z,100814.34
2023-05-17T01:57:13.897Z,100816.73
2023-05-17T01:57:36.851Z,100814.29
2023-05-17T01:57:59.411Z,100815.90
2023-05-17T01:58:21.954Z,100814.52
2023-05-17T01:58:45.841Z,100816.50
2023-05-17T01:59:07.731Z,100813.16
2023-05-17T01:59:29.473Z,100814.23
2023-05-17T01:59:51.391Z,100815.67
2023-05-17T02:00:13.694Z,100819.80
2023-05-17T02:00:39.390Z,100812.34
2023-05-17T02:01:01.344Z,100814.69
2023-05-17T02:01:23.236Z,100816.33
2023-05-17T02:01:45.121Z,100814.75
2023-05-17T02:02:09.174Z,100813.31
2023-05-17T02:02:31.256Z,100814.46
2023-05-17T02:02:53.154Z,100816.23
2023-05-17T02:03:18.885Z,100815.58
2023-05-17T02:03:40.850Z,100815.48
2023-05-17T02:04:02.942Z,100815.48
2023-05-17T02:04:26.698Z,100817.96
2023-05-17T02:04:49.041Z,100821.05
2023-05-17T02:05:11.398Z,100820.71
2023-05-17T02:05:35.136Z,100820.05
2023-05-17T02:05:57.022Z,100821.52
2023-05-17T02:06:18.916Z,100818.15
2023-05-17T02:06:40.898Z,100824.08
2023-05-17T02:07:03.189Z,100821.45
2023-05-17T02:07:24.931Z,100821.82
2023-05-17T02:07:49.962Z,100823.79
2023-05-17T02:08:12.872Z,100826.10
2023-05-17T02:08:34.829Z,100824.90
2023-05-17T02:09:00.605Z,100822.99
2023-05-17T02:09:22.348Z,100822.95
2023-05-17T02:09:44.276Z,100824.41
2023-05-17T02:10:06.316Z,100820.69
2023-05-17T02:10:28.254Z,100824.85
2023-05-17T02:10:51.675Z,100825.22
2023-05-17T02:11:13.396Z,100824.15
2023-05-17T02:11:36.376Z,100824.54
2023-05-17T02:11:58.176Z,100827.03
2023-05-17T02:12:20.145Z,100825.98
2023-05-17T02:12:42.027Z,100829.23
2023-05-17T02:13:04.239Z,100825.52
2023-05-17T02:13:26.117Z,100826.97
2023-05-17T02:13:47.999Z,100828.25
2023-05-17T02:14:09.885Z,100827.95
2023-05-17T02:14:31.770Z,100826.19
2023-05-17T02:14:53.516Z,100826.02
2023-05-17T02:15:16.805Z,100828.54
2023-05-17T02:15:38.658Z,100828.36
2023-05-17T02:16:01.679Z,100827.98
2023-05-17T02:16:23.454Z,100828.06
2023-05-17T02:16:45.351Z,100827.04
2023-05-17T02:17:07.619Z,100830.57
2023-05-17T02:17:29.486Z,100829.02
2023-05-17T02:17:51.368Z,100829.88
2023-05-17T02:18:13.611Z,100831.06
2023-05-17T02:18:38.080Z,100825.54
2023-05-17T02:19:00.168Z,100829.59
2023-05-17T02:19:22.129Z,100829.98
2023-05-17T02:19:44.022Z,100828.38
2023-05-17T02:20:09.383Z,100831.77
2023-05-17T02:20:31.575Z,100831.73
2023-05-17T02:20:53.973Z,100830.83
2023-05-17T02:21:18.616Z,100832.23
2023-05-17T02:21:40.505Z,100831.15
2023-05-17T02:22:02.394Z,100831.02
2023-05-17T02:22:25.100Z,100834.54
2023-05-17T02:22:46.982Z,100836.80
2023-05-17T02:23:08.975Z,100837.54
2023-05-17T02:23:30.714Z,100833.95
2023-05-17T02:23:52.595Z,100834.62
2023-05-17T02:24:14.561Z,100837.67
2023-05-17T02:24:36.639Z,100835.52
2023-05-17T02:25:00.252Z,100837.48
2023-05-17T02:25:21.985Z,100837.27
2023-05-17T02:25:43.824Z,100838.44
2023-05-17T02:26:05.596Z,100843.25
2023-05-17T02:26:28.932Z,100842.02
2023-05-17T02:26:51.151Z,100840.58
2023-05-17T02:27:13.106Z,100838.66
2023-05-17T02:27:34.908Z,100838.23
2023-05-17T02:27:56.984Z,100840.65
2023-05-17T02:28:18.798Z,100838.88
2023-05-17T02:28:40.564Z,100839.89
2023-05-17T02:29:02.333Z,100840.62
2023-05-17T02:29:26.060Z,100839.39
2023-05-17T02:29:47.871Z,100838.77
2023-05-17T02:30:09.910Z,100841.66
2023-05-17T02:30:31.943Z,100839.69
2023-05-17T02:30:54.351Z,100840.79
2023-05-17T02:31:16.312Z,100840.91
2023-05-17T02:31:38.199Z,100837.70
2023-05-17T02:32:00.097Z,100841.09
2023-05-17T02:32:22.305Z,100841.19
2023-05-17T02:32:44.177Z,100838.86
2023-05-17T02:33:06.346Z,100840.64
2023-05-17T02:33:28.601Z,100837.76
2023-05-17T02:33:51.587Z,100837.33
2023-05-17T02:34:13.553Z,100838.02
2023-05-17T02:34:35.372Z,100837.45
2023-05-17T02:34:57.110Z,100838.02
2023-05-17T02:35:19.009Z,100836.70
2023-05-17T02:35:41.005Z,100836.86
2023-05-17T02:36:02.892Z,100838.40
2023-05-17T02:36:24.622Z,100839.97
2023-05-17T02:36:47.005Z,100840.87
2023-05-17T02:37:08.766Z,100839.98
2023-05-17T02:37:32.028Z,100840.67
2023-05-17T02:37:53.959Z,100842.40
2023-05-17T02:38:16.163Z,100843.48
2023-05-17T02:38:37.918Z,100849.79
2023-05-17T02:39:00.496Z,100848.14
2023-05-17T02:39:22.322Z,100848.17
2023-05-17T02:39:44.321Z,100848.27
2023-05-17T02:40:09.662Z,100848.43
2023-05-17T02:40:31.564Z,100848.30
2023-05-17T02:40:53.292Z,100848.39
2023-05-17T02:41:15.290Z,100851.92
2023-05-17T02:41:37.224Z,100850.70
2023-05-17T02:41:59.115Z,100852.60
2023-05-17T02:42:20.998Z,100851.65
2023-05-17T02:42:43.503Z,100851.46
2023-05-17T02:43:05.509Z,100853.73
2023-05-17T02:43:31.367Z,100850.63
2023-05-17T02:43:53.179Z,100851.30
2023-05-17T02:44:15.033Z,100854.11
2023-05-17T02:44:36.801Z,100852.10
2023-05-17T02:44:58.554Z,100851.02
2023-05-17T02:45:20.408Z,100850.95
2023-05-17T02:45:43.565Z,100851.78
2023-05-17T02:46:07.637Z,100851.38
2023-05-17T02:46:29.427Z,100849.36
2023-05-17T02:46:51.471Z,100850.56
2023-05-17T02:47:13.584Z,100852.66
2023-05-17T02:47:35.666Z,100853.09
2023-05-17T02:47:58.005Z,100853.80
2023-05-17T02:48:20.019Z,100854.29
2023-05-17T02:48:41.891Z,100855.33
2023-05-17T02:49:03.949Z,100855.98
2023-05-17T02:49:25.828Z,100851.69
2023-05-17T02:49:48.400Z,100855.91
2023-05-17T02:50:10.381Z,100854.06
2023-05-17T02:50:32.423Z,100854.89
2023-05-17T02:50:54.529Z,100855.79
2023-05-17T02:51:16.555Z,100851.14
2023-05-17T02:51:38.506Z,100857.13
2023-05-17T02:52:01.197Z,100855.44
2023-05-17T02:52:23.316Z,100852.39
2023-05-17T02:52:45.193Z,100853.42
2023-05-17T02:53:06.980Z,100852.43
2023-05-17T02:53:28.853Z,100855.02
2023-05-17T02:53:50.842Z,100856.80
2023-05-17T02:54:13.129Z,100857.48
2023-05-17T02:54:35.083Z,100854.75
2023-05-17T02:54:57.008Z,100858.34
2023-05-17T02:55:18.893Z,100855.13
2023-05-17T02:55:40.884Z,100858.14
2023-05-17T02:56:02.778Z,100859.88
2023-05-17T02:56:24.755Z,100858.84
2023-05-17T02:56:46.768Z,100857.80
2023-05-17T02:57:09.027Z,100864.41
2023-05-17T02:57:30.929Z,100863.54
2023-05-17T02:57:52.853Z,100864.52
2023-05-17T02:58:15.828Z,100868.78
2023-05-17T02:58:37.710Z,100868.78
2023-05-17T02:59:01.410Z,100872.86
2023-05-17T02:59:23.737Z,100871.45
2023-05-17T02:59:46.138Z,100868.98
2023-05-17T03:00:09.425Z,100876.20
2023-05-17T03:00:31.350Z,100871.46
2023-05-17T03:00:53.192Z,100873.93
2023-05-17T03:01:15.220Z,100875.88
2023-05-17T03:01:37.721Z,100873.16
2023-05-17T03:01:59.811Z,100871.09
2023-05-17T03:02:21.784Z,100874.06
2023-05-17T03:02:44.139Z,100871.91
2023-05-17T03:03:06.375Z,100872.42
2023-05-17T03:03:28.648Z,100874.36
2023-05-17T03:03:50.698Z,100878.27
2023-05-17T03:04:12.668Z,100873.98
2023-05-17T03:04:35.709Z,100876.80
2023-05-17T03:04:57.979Z,100875.14
2023-05-17T03:05:19.879Z,100877.38
2023-05-17T03:05:44.532Z,100875.91
2023-05-17T03:06:06.821Z,100879.41
2023-05-17T03:06:30.531Z,100876.16
2023-05-17T03:06:52.826Z,100882.76
2023-05-17T03:07:14.612Z,100883.39
2023-05-17T03:07:37.218Z,100879.41
2023-05-17T03:07:59.207Z,100883.13
2023-05-17T03:08:21.293Z,100883.31
2023-05-17T03:08:43.274Z,100884.85
2023-05-17T03:09:05.373Z,100883.56
2023-05-17T03:09:29.884Z,100883.09
2023-05-17T03:09:52.246Z,100881.71
2023-05-17T03:10:14.193Z,100884.19
2023-05-17T03:10:39.037Z,100886.30
2023-05-17T03:11:01.866Z,100884.08
2023-05-17T03:11:24.067Z,100882.77
2023-05-17T03:11:46.353Z,100883.23
2023-05-17T03:12:13.864Z,100882.98
2023-05-17T03:12:35.672Z,100881.96
2023-05-17T03:12:57.549Z,100882.79
2023-05-17T03:13:23.032Z,100884.16
2023-05-17T03:13:46.581Z,100882.84
2023-05-17T03:14:08.928Z,100883.33
2023-05-17T03:14:31.526Z,100886.81
2023-05-17T03:14:53.422Z,100885.83
2023-05-17T03:15:15.968Z,100885.89
2023-05-17T03:15:40.870Z,100887.96
2023-05-17T03:16:02.972Z,100883.75
2023-05-17T03:16:24.852Z,100884.95
2023-05-17T03:16:47.229Z,100884.84
2023-05-17T03:17:09.227Z,100886.40
2023-05-17T03:17:31.672Z,100886.66
2023-05-17T03:17:54.710Z,100889.35
2023-05-17T03:18:16.982Z,100887.00
2023-05-17T03:18:39.273Z,100886.08
2023-05-17T03:19:01.433Z,100886.65
2023-05-17T03:19:24.204Z,100887.16
2023-05-17T03:19:47.104Z,100888.11
2023-05-17T03:20:09.616Z,100885.73
2023-05-17T03:20:31.521Z,100886.69
2023-05-17T03:20:53.448Z,100887.84
2023-05-17T03:21:15.612Z,100886.57
2023-05-17T03:21:37.534Z,100888.10
2023-05-17T03:21:59.311Z,100890.34
2023-05-17T03:22:21.193Z,100885.31
2023-05-17T03:22:43.432Z,100888.20
2023-05-17T03:23:05.175Z,100887.23
2023-05-17T03:23:31.125Z,100885.42
2023-05-17T03:23:54.958Z,100887.92
2023-05-17T03:24:17.874Z,100887.16
2023-05-17T03:24:39.856Z,100888.98
2023-05-17T03:25:01.666Z,100887.60
2023-05-17T03:25:23.638Z,100886.81
2023-05-17T03:25:45.618Z,100889.34
2023-05-17T03:26:07.423Z,100890.47
2023-05-17T03:26:35.968Z,100889.82
2023-05-17T03:26:57.928Z,100891.02
2023-05-17T03:27:19.692Z,100894.66
2023-05-17T03:27:41.777Z,100895.25
2023-05-17T03:28:03.702Z,100892.79
2023-05-17T03:28:25.805Z,100894.19
2023-05-17T03:28:47.774Z,100895.55
2023-05-17T03:29:10.271Z,100893.83
2023-05-17T03:29:32.597Z,100896.55
2023-05-17T03:29:54.488Z,100898.63
2023-05-17T03:30:17.822Z,100901.56
2023-05-17T03:30:40.842Z,100899.48
2023-05-17T03:31:03.405Z,100902.21
2023-05-17T03:31:27.352Z,100902.14
2023-05-17T03:31:49.514Z,100900.83
2023-05-17T03:32:11.608Z,100902.32
2023-05-17T03:32:33.453Z,100901.86
2023-05-17T03:32:55.647Z,100900.14
2023-05-17T03:33:18.733Z,100898.08
2023-05-17T03:33:40.942Z,100899.60
2023-05-17T03:34:03.324Z,100898.72
2023-05-17T03:34:26.292Z,100899.14
2023-05-17T03:34:48.288Z,100898.86
2023-05-17T03:35:10.383Z,100901.09
2023-05-17T03:35:33.523Z,100900.77
2023-05-17T03:35:55.375Z,100900.67
2023-05-17T03:36:17.270Z,100902.52
2023-05-17T03:36:40.548Z,100900.46
2023-05-17T03:37:02.471Z,100899.23
2023-05-17T03:37:24.663Z,100899.09
2023-05-17T03:37:46.536Z,100901.32
2023-05-17T03:38:08.463Z,100903.48
2023-05-17T03:38:30.734Z,100905.52
2023-05-17T03:38:52.490Z,100904.48
2023-05-17T03:39:14.614Z,100903.61
2023-05-17T03:39:37.316Z,100900.83
2023-05-17T03:39:59.129Z,100902.94
2023-05-17T03:40:21.086Z,100903.46
2023-05-17T03:40:42.980Z,100902.93
2023-05-17T03:41:04.897Z,100905.46
2023-05-17T03:41:27.245Z,100906.75
2023-05-17T03:41:49.082Z,100909.16
2023-05-17T03:42:11.338Z,100907.06
2023-05-17T03:42:33.122Z,100905.83
2023-05-17T03:42:55.119Z,100905.16
2023-05-17T03:43:16.884Z,100906.36
2023-05-17T03:43:38.912Z,100905.48
2023-05-17T03:44:01.719Z,100906.00
2023-05-17T03:44:23.560Z,100907.42
2023-05-17T03:44:46.070Z,100905.12
2023-05-17T03:45:09.218Z,100903.48
2023-05-17T03:45:31.388Z,100907.54
2023-05-17T03:45:53.280Z,100905.73
2023-05-17T03:46:15.059Z,100907.98
2023-05-17T03:46:36.950Z,100908.48
2023-05-17T03:46:59.428Z,100906.36
2023-05-17T03:47:24.128Z,100905.79
2023-05-17T03:47:46.525Z,100907.17
2023-05-17T03:48:08.539Z,100906.39
2023-05-17T03:48:30.494Z,100906.23
2023-05-17T03:48:52.561Z,100910.80
2023-05-17T03:49:14.527Z,100909.20
2023-05-17T03:49:36.641Z,100904.70
2023-05-17T03:49:58.452Z,100909.09
2023-05-17T03:50:20.835Z,100910.52
2023-05-17T03:50:42.813Z,100911.18
2023-05-17T03:51:05.423Z,100910.65
2023-05-17T03:51:28.132Z,100913.48
2023-05-17T03:51:50.028Z,100909.16
2023-05-17T03:52:12.934Z,100912.52
2023-05-17T03:52:35.008Z,100910.46
2023-05-17T03:52:56.788Z,100913.11
2023-05-17T03:53:18.781Z,100912.88
2023-05-17T03:53:43.716Z,100911.73
2023-05-17T03:54:06.446Z,100913.60
2023-05-17T03:54:28.335Z,100910.30
2023-05-17T03:54:51.389Z,100912.00
2023-05-17T03:55:13.339Z,100909.29
2023-05-17T03:55:35.144Z,100910.88
2023-05-17T03:55:57.011Z,100908.00
2023-05-17T03:56:18.787Z,100907.71
2023-05-17T03:56:40.674Z,100912.14
2023-05-17T03:57:04.610Z,100905.20
2023-05-17T03:57:26.810Z,100907.48
2023-05-17T03:57:48.738Z,100911.76
2023-05-17T03:58:10.781Z,100907.17
2023-05-17T03:58:32.668Z,100908.38
2023-05-17T03:58:54.437Z,100911.27
2023-05-17T03:59:16.893Z,100911.57
2023-05-17T03:59:38.746Z,100908.20
2023-05-17T04:00:00.937Z,100910.48
2023-05-17T04:00:24.168Z,100911.36
2023-05-17T04:00:47.711Z,100911.02
2023-05-17T04:01:10.312Z,100910.04
2023-05-17T04:01:32.186Z,100908.61
2023-05-17T04:01:54.046Z,100910.02
2023-05-17T04:02:17.074Z,100911.82
2023-05-17T04:02:39.092Z,100911.41
2023-05-17T04:03:01.587Z,100914.56
2023-05-17T04:03:23.432Z,100914.52
2023-05-17T04:03:45.197Z,100914.31
2023-05-17T04:04:07.167Z,100913.56
2023-05-17T04:04:29.256Z,100913.50
2023-05-17T04:04:51.576Z,100916.07
2023-05-17T04:05:13.755Z,100914.63
2023-05-17T04:05:36.397Z,100915.54
2023-05-17T04:06:02.941Z,100914.92
2023-05-17T04:06:24.865Z,100919.91
2023-05-17T04:06:47.674Z,100913.83
2023-05-17T04:07:11.050Z,100918.39
2023-05-17T04:07:33.095Z,100921.21
2023-05-17T04:07:54.974Z,100917.73
2023-05-17T04:08:17.605Z,100919.27
2023-05-17T04:08:39.524Z,100917.91
2023-05-17T04:09:02.268Z,100917.64
2023-05-17T04:09:24.128Z,100918.55
2023-05-17T04:09:46.146Z,100922.61
2023-05-17T04:10:08.236Z,100918.35
2023-05-17T04:10:30.223Z,100921.75
2023-05-17T04:10:51.947Z,100919.77
2023-05-17T04:11:14.233Z,100922.17
2023-05-17T04:11:36.428Z,100922.67
2023-05-17T04:11:58.208Z,100921.31
2023-05-17T04:12:19.980Z,100915.08
2023-05-17T04:12:42.873Z,100918.48
2023-05-17T04:13:04.789Z,100917.32
2023-05-17T04:13:27.271Z,100921.80
2023-05-17T04:13:49.318Z,100918.65
2023-05-17T04:14:11.347Z,100917.60
2023-05-17T04:14:33.548Z,100916.38
2023-05-17T04:14:55.315Z,100915.84
2023-05-17T04:15:17.245Z,100919.77
2023-05-17T04:15:39.298Z,100919.45
2023-05-17T04:16:01.417Z,100919.91
2023-05-17T04:16:23.480Z,100920.29
2023-05-17T04:16:45.675Z,100921.08
2023-05-17T04:17:07.763Z,100921.58
2023-05-17T04:17:30.303Z,100923.57
2023-05-17T04:17:52.550Z,100920.52
2023-05-17T04:18:14.552Z,100917.86
2023-05-17T04:18:37.003Z,100917.45
2023-05-17T04:19:00.259Z,100921.76
2023-05-17T04:19:23.016Z,100918.90
2023-05-17T04:19:45.189Z,100919.15
2023-05-17T04:20:07.768Z,100920.52
2023-05-17T04:20:30.068Z,100917.25
2023-05-17T04:20:51.847Z,100917.29
2023-05-17T04:21:13.737Z,100919.36
2023-05-17T04:21:35.721Z,100918.77
2023-05-17T04:21:57.860Z,100918.95